Time;durP1;ratioP1;P1;durP2;ratioP2;P2;SDS_P1;SDS_P2;PMS_P1;PMS_P2;Temp;Humidity;BMP_temperature;BMP_pressure;BME280_temperature;BME280_humidity;BME280_pressure;Samples;Min_cycle;Max_cycle;Signal;HPM_P1;HPM_P2
2023/03/21 00:01:39;;;;;;;7.70;7.13;;;;;;;5.40;100.00;97197.94;4960934;28;20464;-69
2023/03/21 00:04:06;;;;;;;6.47;5.97;;;;;;;5.30;100.00;97198.84;5013610;28;20593;-69
2023/03/21 00:06:35;;;;;;;8.53;7.83;;;;;;;5.24;100.00;97206.47;4998896;28;20199;-69
2023/03/21 00:09:03;;;;;;;9.03;8.23;;;;;;;5.18;100.00;97197.38;5011649;28;21897;-69
2023/03/21 00:11:31;;;;;;;8.60;7.80;;;;;;;5.13;100.00;97192.59;4994622;28;20245;-69
2023/03/21 00:14:01;;;;;;;8.07;7.47;;;;;;;5.21;100.00;97204.97;5013031;28;20214;-68
2023/03/21 00:16:34;;;;;;;8.30;7.60;;;;;;;5.30;100.00;97204.09;5002329;28;20204;-68
2023/03/21 00:19:05;;;;;;;8.13;7.43;;;;;;;5.32;100.00;97203.91;4998710;28;20680;-69
2023/03/21 00:21:37;;;;;;;7.03;6.50;;;;;;;5.29;100.00;97204.22;5006329;28;20677;-68
2023/03/21 00:24:24;;;;;;;7.67;7.07;;;;;;;5.32;100.00;97204.75;5013758;28;20207;-69
2023/03/21 00:26:52;;;;;;;7.97;7.23;;;;;;;5.32;100.00;97196.88;4989577;28;20587;-69
2023/03/21 00:29:20;;;;;;;7.73;6.47;;;;;;;5.26;100.00;97202.72;5023852;28;20211;-69
2023/03/21 00:31:48;;;;;;;6.87;6.37;;;;;;;5.15;100.00;97195.91;4958683;28;20893;-70
2023/03/21 00:34:17;;;;;;;6.40;5.90;;;;;;;5.13;100.00;97195.22;5011866;28;20202;-69
2023/03/21 00:37:03;;;;;;;6.67;6.00;;;;;;;5.04;100.00;97193.47;5016426;28;20371;-69
2023/03/21 00:39:30;;;;;;;8.53;7.73;;;;;;;4.92;100.00;97200.72;4992572;28;20650;-69
2023/03/21 00:41:58;;;;;;;7.23;6.63;;;;;;;4.92;100.00;97187.59;4995657;28;20858;-69
2023/03/21 00:44:26;;;;;;;7.43;6.83;;;;;;;5.01;100.00;97183.25;5003910;28;20287;-68
2023/03/21 00:46:53;;;;;;;7.27;6.67;;;;;;;5.12;100.00;97175.19;5009643;28;20202;-69
2023/03/21 00:49:37;;;;;;;8.00;7.20;;;;;;;5.11;100.00;97184.00;4961188;28;20310;-69
2023/03/21 00:52:07;;;;;;;8.13;7.53;;;;;;;5.19;100.00;97181.50;5013526;28;20205;-68
2023/03/21 00:54:49;;;;;;;6.77;6.17;;;;;;;5.20;100.00;97170.00;4991182;28;20354;-68
2023/03/21 00:57:17;;;;;;;7.83;7.20;;;;;;;5.28;100.00;97173.69;4989039;28;20329;-69
2023/03/21 00:59:46;;;;;;;7.87;7.07;;;;;;;5.31;100.00;97179.47;5011230;28;20729;-69
2023/03/21 01:02:21;;;;;;;7.80;7.20;;;;;;;5.26;100.00;97170.38;5012025;28;21037;-69
2023/03/21 01:04:51;;;;;;;8.57;7.87;;;;;;;5.27;100.00;97172.84;4956050;28;20215;-69
2023/03/21 01:07:18;;;;;;;7.63;7.03;;;;;;;5.32;100.00;97175.03;5009079;28;20234;-69
2023/03/21 01:09:46;;;;;;;8.43;7.77;;;;;;;5.38;100.00;97173.59;4996523;28;20412;-70
2023/03/21 01:12:15;;;;;;;7.73;7.13;;;;;;;5.36;100.00;97165.84;5013360;28;20673;-69
2023/03/21 01:14:43;;;;;;;7.63;7.03;;;;;;;5.48;100.00;97169.88;4979615;28;20204;-70
2023/03/21 01:17:10;;;;;;;8.13;7.53;;;;;;;5.56;100.00;97165.69;5008680;28;20230;-69
2023/03/21 01:19:39;;;;;;;8.60;7.90;;;;;;;5.60;100.00;97164.41;4976985;28;20415;-69
2023/03/21 01:22:20;;;;;;;8.30;7.70;;;;;;;5.57;100.00;97167.34;5009504;28;20211;-69
2023/03/21 01:24:48;;;;;;;8.63;7.93;;;;;;;5.61;100.00;97152.91;4987337;28;21033;-69
2023/03/21 01:27:27;;;;;;;7.50;6.80;;;;;;;5.70;100.00;97167.78;5007260;28;20417;-69
2023/03/21 01:29:55;;;;;;;8.30;7.70;;;;;;;5.72;100.00;97165.81;4987954;28;21989;-68
2023/03/21 01:32:22;;;;;;;8.43;7.73;;;;;;;5.73;100.00;97161.38;5007746;28;20451;-69
2023/03/21 01:34:50;;;;;;;8.07;7.47;;;;;;;5.72;100.00;97147.41;5009698;28;20196;-69
2023/03/21 01:37:18;;;;;;;8.53;7.73;;;;;;;5.74;100.00;97147.25;4959411;28;20247;-69
2023/03/21 01:39:47;;;;;;;8.23;7.53;;;;;;;5.76;100.00;97146.13;5001643;28;20604;-69
2023/03/21 01:42:15;;;;;;;8.83;8.13;;;;;;;5.81;100.00;97148.28;5012133;28;20215;-69
2023/03/21 01:44:55;;;;;;;8.23;7.53;;;;;;;5.82;100.00;97138.59;4988719;28;20228;-69
2023/03/21 01:47:23;;;;;;;8.80;8.10;;;;;;;5.85;100.00;97146.16;5011728;28;20223;-70
2023/03/21 01:49:52;;;;;;;7.93;7.33;;;;;;;5.87;100.00;97133.69;5010682;28;20612;-69
2023/03/21 01:52:22;;;;;;;8.10;7.40;;;;;;;5.86;100.00;97137.28;4962384;28;20239;-70
2023/03/21 01:55:07;;;;;;;8.83;7.97;;;;;;;5.81;100.00;97140.41;5021552;28;20196;-69
2023/03/21 01:57:40;;;;;;;8.60;7.70;;;;;;;5.73;100.00;97135.91;5007597;28;20954;-69
2023/03/21 02:00:20;;;;;;;8.47;7.77;;;;;;;5.65;100.00;97127.97;4981044;28;20801;-68
2023/03/21 02:02:50;;;;;;;8.27;7.67;;;;;;;5.57;100.00;97120.84;5015583;28;20232;-68
2023/03/21 02:05:22;;;;;;;8.67;7.87;;;;;;;5.66;100.00;97127.00;5020154;28;20289;-69
2023/03/21 02:07:52;;;;;;;8.33;7.63;;;;;;;5.71;100.00;97129.19;4978125;28;20789;-69
2023/03/21 02:10:22;;;;;;;8.80;8.10;;;;;;;5.72;100.00;97129.00;4996401;28;20210;-68
2023/03/21 02:12:50;;;;;;;8.57;7.90;;;;;;;5.63;100.00;97129.94;5018774;28;20208;-68
2023/03/21 02:15:17;;;;;;;7.70;7.10;;;;;;;5.59;100.00;97131.22;4979387;28;20216;-69
2023/03/21 02:17:50;;;;;;;8.40;7.70;;;;;;;5.57;100.00;97125.28;5022606;28;20258;-68
2023/03/21 02:20:39;;;;;;;7.90;7.23;;;;;;;5.58;100.00;97137.47;5016975;28;20212;-68
2023/03/21 02:23:20;;;;;;;7.77;7.17;;;;;;;5.59;100.00;97125.97;4960808;28;20231;-69
2023/03/21 02:26:21;;;;;;;9.70;7.43;;;;;;;5.52;100.00;97138.88;4997195;28;20207;-68
2023/03/21 02:28:56;;;;;;;8.37;7.77;;;;;;;5.32;100.00;97128.56;5016592;28;20663;-69
2023/03/21 02:31:31;;;;;;;8.13;7.43;;;;;;;5.19;100.00;97125.47;4995464;28;20624;-69
2023/03/21 02:34:47;;;;;;;8.33;7.63;;;;;;;5.09;100.00;97128.19;5014162;28;20909;-68
2023/03/21 02:37:20;;;;;;;7.53;6.87;;;;;;;5.12;100.00;97127.91;4999915;28;20421;-69
2023/03/21 02:40:09;;;;;;;8.17;7.37;;;;;;;4.97;100.00;97139.91;4969044;28;20279;-69
2023/03/21 02:42:45;;;;;;;7.93;7.33;;;;;;;5.03;100.00;97132.25;5002832;28;20320;-69
2023/03/21 02:45:26;;;;;;;8.93;8.17;;;;;;;4.95;100.00;97136.59;4990498;28;21181;-69
2023/03/21 02:47:57;;;;;;;9.13;8.37;;;;;;;4.92;100.00;97133.31;5012360;28;21009;-69
2023/03/21 02:50:30;;;;;;;8.80;8.10;;;;;;;4.86;100.00;97133.06;5023843;28;20321;-68
2023/03/21 02:53:00;;;;;;;9.70;9.00;;;;;;;4.84;100.00;97138.47;5007665;28;20212;-69
2023/03/21 02:55:31;;;;;;;9.60;8.90;;;;;;;4.85;100.00;97141.91;4976927;28;20242;-69
2023/03/21 02:57:59;;;;;;;9.67;8.90;;;;;;;4.88;100.00;97141.59;5001255;28;20511;-68
2023/03/21 03:00:39;;;;;;;8.97;8.07;;;;;;;4.84;100.00;97133.22;4995766;28;20684;-69
2023/03/21 03:03:07;;;;;;;9.00;8.20;;;;;;;4.97;100.00;97139.91;5012030;28;20214;-69
2023/03/21 03:05:43;;;;;;;8.80;8.10;;;;;;;5.04;100.00;97135.69;5019911;28;20210;-69
2023/03/21 03:08:20;;;;;;;9.23;8.33;;;;;;;5.05;100.00;97140.81;5012364;28;20228;-69
2023/03/21 03:11:09;;;;;;;9.20;8.40;;;;;;;5.11;100.00;97142.00;4974940;28;20510;-69
2023/03/21 03:13:50;;;;;;;8.70;7.97;;;;;;;5.11;100.00;97133.31;4994481;28;20484;-69
2023/03/21 03:16:26;;;;;;;8.87;8.03;;;;;;;5.24;100.00;97138.19;4989235;28;20735;-69
2023/03/21 03:18:55;;;;;;;8.63;7.93;;;;;;;5.27;100.00;97130.00;5009718;28;20219;-69
2023/03/21 03:21:28;;;;;;;8.90;8.20;;;;;;;5.31;100.00;97133.97;5013991;28;20226;-69
2023/03/21 03:23:58;;;;;;;8.70;8.00;;;;;;;5.34;100.00;97134.50;4965742;28;21295;-69
2023/03/21 03:26:29;;;;;;;8.03;7.43;;;;;;;5.34;100.00;97133.66;5015163;28;20659;-68
2023/03/21 03:29:00;;;;;;;8.73;8.00;;;;;;;5.38;100.00;97128.94;4996875;28;21030;-69
2023/03/21 03:31:32;;;;;;;7.57;6.67;;;;;;;5.38;100.00;97132.38;4988995;28;20214;-69
2023/03/21 03:34:01;;;;;;;10.03;9.17;;;;;;;5.36;100.00;97134.31;5015582;28;20346;-69
2023/03/21 03:36:35;;;;;;;8.17;7.37;;;;;;;5.43;100.00;97131.94;4983639;28;20216;-68
2023/03/21 03:39:07;;;;;;;8.43;7.63;;;;;;;5.38;100.00;97132.38;5013856;28;20224;-69
2023/03/21 03:41:41;;;;;;;8.37;7.77;;;;;;;5.38;100.00;97129.75;4985474;28;20250;-69
2023/03/21 03:44:29;;;;;;;8.43;7.77;;;;;;;5.32;100.00;97132.97;5017484;28;21103;-69
2023/03/21 03:47:00;;;;;;;7.80;7.20;;;;;;;5.21;100.00;97128.78;5021903;28;20203;-69
2023/03/21 03:49:31;;;;;;;8.37;7.67;;;;;;;5.29;100.00;97128.03;5022948;28;20886;-69
2023/03/21 03:52:01;;;;;;;8.40;7.60;;;;;;;5.21;100.00;97126.16;5014412;28;20210;-69
2023/03/21 03:54:33;;;;;;;8.10;7.40;;;;;;;5.26;100.00;97130.97;5014487;28;20551;-69
2023/03/21 03:57:01;;;;;;;8.47;7.67;;;;;;;5.28;100.00;97129.00;4963275;28;20696;-70
2023/03/21 03:59:29;;;;;;;8.37;7.77;;;;;;;5.22;100.00;97128.66;5023923;28;20214;-71
2023/03/21 04:01:56;;;;;;;9.17;8.37;;;;;;;5.22;100.00;97128.66;4971658;28;20226;-70
2023/03/21 04:04:27;;;;;;;8.17;7.33;;;;;;;5.17;100.00;97120.41;5017458;28;20223;-71
2023/03/21 04:06:55;;;;;;;8.67;7.90;;;;;;;5.17;100.00;97119.56;5017094;28;20433;-70
2023/03/21 04:09:25;;;;;;;8.93;8.13;;;;;;;5.24;100.00;97120.59;5015290;28;20230;-70
2023/03/21 04:12:11;;;;;;;7.07;6.47;;;;;;;5.26;100.00;97120.47;4972623;28;20638;-70
2023/03/21 04:14:39;;;;;;;9.80;9.00;;;;;;;5.26;100.00;97123.09;5016996;28;20717;-70
2023/03/21 04:17:14;;;;;;;8.63;8.00;;;;;;;5.26;100.00;97123.09;4993553;28;20282;-71
2023/03/21 04:19:45;;;;;;;8.83;8.03;;;;;;;5.23;100.00;97121.56;5005233;28;20216;-70
2023/03/21 04:22:13;;;;;;;8.60;7.83;;;;;;;5.00;100.00;97115.97;5009005;28;20418;-71
2023/03/21 04:24:41;;;;;;;8.37;7.60;;;;;;;5.11;100.00;97128.03;5009653;28;20227;-70
2023/03/21 04:27:09;;;;;;;12.00;10.80;;;;;;;5.10;100.00;97129.03;4966835;28;20289;-68
2023/03/21 04:29:38;;;;;;;11.17;10.27;;;;;;;5.09;100.00;97128.19;5017696;28;20537;-69
2023/03/21 04:32:14;;;;;;;10.13;9.30;;;;;;;5.06;100.00;97125.84;4994727;28;20210;-71
2023/03/21 04:34:48;;;;;;;10.17;9.10;;;;;;;5.05;100.00;97132.09;4987368;28;20292;-66
2023/03/21 04:37:17;;;;;;;9.23;8.17;;;;;;;5.01;100.00;97130.75;5011284;28;20226;-70
2023/03/21 04:39:46;;;;;;;9.40;8.60;;;;;;;4.97;100.00;97132.84;5016028;28;20204;-70
2023/03/21 04:42:17;;;;;;;9.63;8.03;;;;;;;5.00;100.00;97127.31;4998017;28;20210;-67
2023/03/21 04:44:47;;;;;;;8.30;7.53;;;;;;;5.03;100.00;97132.25;5003267;28;20223;-68
2023/03/21 04:47:15;;;;;;;8.30;7.50;;;;;;;5.02;100.00;97129.75;5011486;28;20542;-69
2023/03/21 04:49:46;;;;;;;9.63;8.83;;;;;;;4.93;100.00;97121.00;4991915;28;20805;-69
2023/03/21 04:52:14;;;;;;;9.00;8.23;;;;;;;4.87;100.00;97117.16;5014565;28;20211;-69
2023/03/21 04:54:42;;;;;;;9.20;8.30;;;;;;;4.79;100.00;97122.34;5016769;28;20195;-69
2023/03/21 04:57:10;;;;;;;8.83;7.93;;;;;;;4.80;100.00;97116.13;5014708;28;20231;-70
2023/03/21 04:59:38;;;;;;;9.30;8.37;;;;;;;4.84;100.00;97120.09;4960777;28;20812;-69
2023/03/21 05:02:07;;;;;;;9.07;8.23;;;;;;;4.92;100.00;97121.94;5013594;28;20645;-69
2023/03/21 05:04:34;;;;;;;8.20;7.40;;;;;;;4.92;100.00;97120.16;4997437;28;20435;-69
2023/03/21 05:07:02;;;;;;;8.80;8.00;;;;;;;4.90;100.00;97124.75;5011880;28;20208;-69
2023/03/21 05:09:30;;;;;;;8.90;8.00;;;;;;;4.93;100.00;97124.44;5011266;28;20215;-71
2023/03/21 05:11:57;;;;;;;8.80;8.03;;;;;;;4.99;100.00;97123.03;5010212;28;20303;-69
2023/03/21 05:14:27;;;;;;;9.53;8.63;;;;;;;4.92;100.00;97122.78;4956088;28;20824;-68
2023/03/21 05:16:56;;;;;;;10.20;9.30;;;;;;;4.97;100.00;97126.78;5014395;28;20199;-70
2023/03/21 05:19:33;;;;;;;9.53;8.70;;;;;;;4.91;100.00;97125.56;4986688;28;20231;-71
2023/03/21 05:22:03;;;;;;;9.07;8.30;;;;;;;4.99;100.00;97123.03;5015545;28;20266;-70
2023/03/21 05:24:31;;;;;;;11.17;8.90;;;;;;;5.03;100.00;97124.38;5014966;28;20199;-70
2023/03/21 05:27:01;;;;;;;9.73;8.93;;;;;;;5.07;100.00;97119.63;5020553;28;21025;-71
2023/03/21 05:29:30;;;;;;;8.80;8.07;;;;;;;5.14;100.00;97125.13;4979180;28;21770;-69
2023/03/21 05:31:58;;;;;;;10.57;9.50;;;;;;;5.07;100.00;97124.88;5019760;28;20207;-69
2023/03/21 05:34:27;;;;;;;10.10;9.20;;;;;;;5.10;100.00;97124.59;4999709;28;21009;-69
2023/03/21 05:36:55;;;;;;;9.80;8.90;;;;;;;5.21;100.00;97128.78;5019008;28;20723;-69
2023/03/21 05:39:23;;;;;;;10.43;9.43;;;;;;;5.23;100.00;97124.19;4999770;28;20238;-70
2023/03/21 05:41:50;;;;;;;11.43;10.40;;;;;;;5.30;100.00;97121.81;5022399;28;20839;-69
2023/03/21 05:44:18;;;;;;;12.53;11.33;;;;;;;5.34;100.00;97120.53;5014290;28;20345;-70
2023/03/21 05:46:46;;;;;;;12.97;11.67;;;;;;;5.42;100.00;97125.03;4990596;28;20223;-70
2023/03/21 05:49:13;;;;;;;11.33;10.23;;;;;;;5.45;100.00;97135.22;5018842;28;20203;-69
2023/03/21 05:51:44;;;;;;;10.90;9.87;;;;;;;5.37;100.00;97125.47;4989668;28;20314;-71
2023/03/21 05:54:15;;;;;;;10.30;9.50;;;;;;;5.21;100.00;97121.75;5018852;28;20211;-69
2023/03/21 05:56:43;;;;;;;9.93;9.07;;;;;;;5.21;100.00;97120.91;5012015;28;20199;-69
2023/03/21 05:59:10;;;;;;;10.50;9.60;;;;;;;5.16;100.00;97115.28;5008908;28;20208;-71
2023/03/21 06:01:38;;;;;;;10.70;9.70;;;;;;;5.22;100.00;97130.44;4961520;28;21243;-70
2023/03/21 06:04:06;;;;;;;8.77;8.03;;;;;;;5.19;100.00;97133.38;5020891;28;20214;-70
2023/03/21 06:06:34;;;;;;;8.50;7.70;;;;;;;5.10;100.00;97135.09;4996351;28;20447;-70
2023/03/21 06:09:03;;;;;;;8.87;8.17;;;;;;;5.09;100.00;97135.25;5024479;28;20354;-70
2023/03/21 06:11:33;;;;;;;8.47;7.77;;;;;;;5.24;100.00;97139.00;4987224;28;20773;-70
2023/03/21 06:14:01;;;;;;;9.13;8.23;;;;;;;5.36;100.00;97144.84;5017503;28;20307;-70
2023/03/21 06:16:29;;;;;;;8.67;8.03;;;;;;;5.50;100.00;97140.84;4995143;28;20231;-70
2023/03/21 06:18:57;;;;;;;9.77;8.97;;;;;;;5.51;100.00;97134.59;4964953;28;20693;-71
2023/03/21 06:21:24;;;;;;;10.00;8.97;;;;;;;5.62;100.00;97138.81;5016467;28;20212;-71
2023/03/21 06:23:53;;;;;;;8.93;8.03;;;;;;;5.60;100.00;97138.13;4999825;28;20215;-71
2023/03/21 06:26:22;;;;;;;9.53;8.63;;;;;;;5.54;100.00;97144.00;5022299;28;20425;-70
2023/03/21 06:28:50;;;;;;;9.90;8.97;;;;;;;5.57;100.00;97148.94;5021804;28;20238;-71
2023/03/21 06:31:17;;;;;;;9.80;8.83;;;;;;;5.67;100.00;97147.03;4998157;28;20641;-71
2023/03/21 06:33:45;;;;;;;9.50;8.70;;;;;;;5.72;100.00;97143.97;4976039;28;20211;-69
2023/03/21 06:36:13;;;;;;;9.20;8.40;;;;;;;5.73;100.00;97149.06;5013543;28;20210;-70
2023/03/21 06:38:40;;;;;;;9.67;8.73;;;;;;;5.73;100.00;97150.88;5001317;28;20731;-69
2023/03/21 06:41:09;;;;;;;9.67;8.87;;;;;;;5.76;100.00;97148.75;5008909;28;20334;-70
2023/03/21 06:43:38;;;;;;;10.23;9.27;;;;;;;5.81;100.00;97153.56;5018140;28;20200;-69
2023/03/21 06:46:05;;;;;;;9.67;8.87;;;;;;;5.89;100.00;97145.72;5013027;28;20579;-70
2023/03/21 06:48:33;;;;;;;10.77;8.53;;;;;;;6.01;100.00;97150.72;4947584;28;20957;-70
2023/03/21 06:51:01;;;;;;;9.23;8.33;;;;;;;5.96;100.00;97148.56;5005721;28;20234;-70
2023/03/21 06:53:28;;;;;;;9.43;8.63;;;;;;;6.01;100.00;97159.47;4985644;28;20223;-70
2023/03/21 06:55:56;;;;;;;9.33;8.47;;;;;;;6.14;100.00;97152.94;5012509;28;20681;-69
2023/03/21 06:58:24;;;;;;;9.17;8.47;;;;;;;6.22;100.00;97147.72;5010508;28;21191;-69
2023/03/21 07:00:58;;;;;;;12.27;11.20;;;;;;;6.42;100.00;97145.66;5016922;28;20210;-68
2023/03/21 07:03:25;;;;;;;8.87;8.17;;;;;;;6.55;100.00;97153.13;4943207;28;20817;-70
2023/03/21 07:05:53;;;;;;;9.07;8.27;;;;;;;6.83;100.00;97149.44;5020146;28;20246;-69
2023/03/21 07:08:21;;;;;;;9.50;8.70;;;;;;;7.14;100.00;97141.75;4987484;28;20810;-70
2023/03/21 07:10:49;;;;;;;11.63;10.70;;;;;;;7.31;100.00;97149.66;5017738;28;20211;-69
2023/03/21 07:13:17;;;;;;;20.93;18.83;;;;;;;7.58;100.00;97142.41;5011129;28;20204;-69
2023/03/21 07:15:44;;;;;;;9.27;8.63;;;;;;;7.75;100.00;97132.66;5011973;28;20200;-69
2023/03/21 07:18:13;;;;;;;9.10;8.30;;;;;;;7.82;100.00;97116.00;4984368;28;20791;-69
2023/03/21 07:20:41;;;;;;;7.80;7.00;;;;;;;8.11;100.00;97124.34;4971659;28;20348;-70
2023/03/21 07:23:09;;;;;;;8.00;7.40;;;;;;;8.07;100.00;97123.84;5008462;28;20246;-70
2023/03/21 07:25:36;;;;;;;7.43;6.83;;;;;;;8.09;100.00;97121.06;4996938;28;20199;-69
2023/03/21 07:28:07;;;;;;;6.00;5.50;;;;;;;8.03;100.00;97109.34;5009914;28;20223;-70
2023/03/21 07:30:36;;;;;;;6.60;4.77;;;;;;;8.19;100.00;97111.13;5014799;28;20309;-69
2023/03/21 07:33:05;;;;;;;6.43;5.83;;;;;;;8.36;99.09;97109.25;5008525;28;20674;-70
2023/03/21 07:35:36;;;;;;;8.80;6.97;;;;;;;8.12;96.92;97107.50;4977481;28;20208;-69
2023/03/21 07:38:04;;;;;;;6.90;6.37;;;;;;;8.04;97.70;97118.91;5016076;28;20230;-71
2023/03/21 07:40:32;;;;;;;6.43;5.90;;;;;;;8.10;99.00;97114.78;4996428;28;21464;-70
2023/03/21 07:42:59;;;;;;;7.87;6.73;;;;;;;8.33;95.54;97116.66;5014636;28;20204;-70
2023/03/21 07:45:32;;;;;;;7.43;6.67;;;;;;;8.34;94.30;97113.88;5014062;28;21232;-69
2023/03/21 07:48:00;;;;;;;7.17;6.47;;;;;;;8.33;94.52;97111.38;5017710;28;20230;-72
2023/03/21 07:50:28;;;;;;;10.57;6.97;;;;;;;8.23;93.21;97114.25;4970039;28;25220;-70
2023/03/21 07:52:57;;;;;;;6.83;6.20;;;;;;;8.26;91.63;97095.44;5017784;28;20732;-70
2023/03/21 07:55:25;;;;;;;6.80;6.20;;;;;;;8.54;90.49;97102.94;5010149;28;20310;-70
2023/03/21 07:57:53;;;;;;;6.90;6.30;;;;;;;8.76;90.54;97111.06;4996021;28;20227;-70
2023/03/21 08:00:22;;;;;;;6.87;6.13;;;;;;;8.81;89.18;97111.34;5005984;28;20208;-70
2023/03/21 08:02:53;;;;;;;6.50;5.80;;;;;;;8.85;86.53;97096.78;5011314;28;20293;-69
2023/03/21 08:05:26;;;;;;;6.17;5.63;;;;;;;8.95;83.87;97093.91;5014304;28;20203;-69
2023/03/21 08:07:54;;;;;;;6.43;5.80;;;;;;;8.95;83.50;97094.75;4968843;28;20259;-70
2023/03/21 08:10:23;;;;;;;6.37;5.50;;;;;;;9.35;83.21;97094.59;5016645;28;20619;-70
2023/03/21 08:12:51;;;;;;;6.70;6.10;;;;;;;9.26;82.69;97100.97;4998185;28;20673;-69
2023/03/21 08:15:19;;;;;;;7.10;6.47;;;;;;;9.21;81.95;97090.09;5014819;28;20315;-70
2023/03/21 08:17:47;;;;;;;6.53;5.93;;;;;;;9.22;80.92;97089.91;5010981;28;20223;-70
2023/03/21 08:20:17;;;;;;;6.83;5.70;;;;;;;9.26;81.00;97095.69;5002870;28;20404;-70
2023/03/21 08:22:44;;;;;;;5.80;5.40;;;;;;;9.15;81.26;97104.03;4960563;28;20223;-69
2023/03/21 08:25:14;;;;;;;6.53;6.03;;;;;;;9.22;80.64;97099.69;5007394;28;20218;-70
2023/03/21 08:27:44;;;;;;;6.93;5.47;;;;;;;9.53;78.60;97096.13;4989308;28;20232;-68
2023/03/21 08:30:13;;;;;;;5.73;5.17;;;;;;;9.78;78.02;97086.13;5009455;28;20212;-70
2023/03/21 08:32:41;;;;;;;5.83;5.23;;;;;;;9.92;77.43;97078.34;5009871;28;20558;-70
2023/03/21 08:35:11;;;;;;;5.23;4.80;;;;;;;9.98;76.04;97089.06;5009200;28;20832;-70
2023/03/21 08:37:39;;;;;;;5.10;4.70;;;;;;;10.04;74.69;97071.63;4965143;28;20246;-70
2023/03/21 08:40:10;;;;;;;4.67;4.13;;;;;;;10.14;72.51;97085.41;5015270;28;20229;-70
2023/03/21 08:42:38;;;;;;;4.30;4.00;;;;;;;9.98;72.89;97074.97;5003425;28;20207;-68
2023/03/21 08:45:08;;;;;;;4.90;4.37;;;;;;;10.08;72.88;97080.00;5015985;28;20200;-70
2023/03/21 08:47:36;;;;;;;4.73;4.30;;;;;;;10.24;72.14;97077.19;5014411;28;20227;-69
2023/03/21 08:50:06;;;;;;;4.73;4.40;;;;;;;10.28;71.40;97074.97;5014170;28;20714;-70
2023/03/21 08:52:34;;;;;;;4.70;4.30;;;;;;;10.46;71.67;97079.09;4957820;28;20621;-68
2023/03/21 08:55:02;;;;;;;4.73;4.17;;;;;;;10.51;72.47;97082.81;5011839;28;20218;-70
2023/03/21 08:57:30;;;;;;;4.90;4.50;;;;;;;10.68;72.74;97074.66;5017493;28;20540;-69
2023/03/21 08:59:57;;;;;;;5.63;4.83;;;;;;;10.67;71.60;97063.22;4999688;28;20491;-69
2023/03/21 09:02:26;;;;;;;5.77;5.23;;;;;;;10.77;70.87;97073.53;5007845;28;21062;-69
2023/03/21 09:04:57;;;;;;;5.10;4.70;;;;;;;10.86;71.26;97077.69;5012363;28;20216;-69
2023/03/21 09:07:26;;;;;;;5.27;4.77;;;;;;;10.53;70.71;97070.19;5012422;28;20400;-66
2023/03/21 09:09:54;;;;;;;4.60;4.20;;;;;;;10.80;71.69;97075.78;4967625;28;20337;-68
2023/03/21 09:12:42;;;;;;;4.93;4.50;;;;;;;10.28;71.80;97069.66;5009592;28;20215;-68
2023/03/21 09:15:11;;;;;;;5.27;4.20;;;;;;;10.66;71.39;97074.03;4988058;28;20566;-69
2023/03/21 09:17:42;;;;;;;5.70;5.20;;;;;;;10.95;70.43;97059.00;5011685;28;20258;-69
2023/03/21 09:20:19;;;;;;;7.60;4.43;;;;;;;11.27;68.95;97070.09;5006889;28;20665;-68
2023/03/21 09:22:48;;;;;;;6.00;4.27;;;;;;;11.44;67.53;97060.88;5009970;28;20598;-67
2023/03/21 09:25:16;;;;;;;5.67;5.17;;;;;;;11.24;68.95;97063.38;4957408;28;20651;-69
2023/03/21 09:27:44;;;;;;;5.07;4.27;;;;;;;11.38;68.29;97059.00;5017615;28;20322;-69
2023/03/21 09:30:15;;;;;;;5.43;4.57;;;;;;;11.26;68.16;97064.00;4987364;28;20700;-69
2023/03/21 09:32:47;;;;;;;5.20;4.80;;;;;;;11.12;67.11;97049.81;5008349;28;20881;-69
2023/03/21 09:35:15;;;;;;;5.27;4.80;;;;;;;11.29;68.32;97049.50;5010871;28;20204;-69
2023/03/21 11:27:35;;;;;;;3.30;2.93;;;;;;;13.17;59.93;96967.09;5099947;27;20870;-66
2023/03/21 11:30:05;;;;;;;3.23;2.93;;;;;;;13.23;61.12;96974.25;5004937;28;20203;-67
2023/03/21 11:32:34;;;;;;;2.97;2.73;;;;;;;13.12;59.46;96964.22;5031507;28;20202;-66
2023/03/21 11:35:06;;;;;;;3.57;3.20;;;;;;;13.05;61.57;96956.25;5025240;28;20202;-67
2023/03/21 11:37:38;;;;;;;3.27;2.67;;;;;;;13.18;60.53;96964.19;5038225;28;20955;-67
2023/03/21 11:40:15;;;;;;;3.10;2.80;;;;;;;13.20;60.57;96956.03;5039551;28;20321;-67
2023/03/21 11:42:46;;;;;;;3.47;3.10;;;;;;;13.40;60.89;96956.00;5041066;28;20317;-66
2023/03/21 11:45:17;;;;;;;5.27;3.00;;;;;;;13.45;60.42;96947.44;4962309;28;20528;-68
2023/03/21 11:47:45;;;;;;;3.10;2.90;;;;;;;13.48;61.10;96944.34;5036233;28;20511;-67
2023/03/21 11:50:19;;;;;;;3.13;2.90;;;;;;;13.44;60.43;96941.28;5021531;28;20234;-67
2023/03/21 11:52:59;;;;;;;3.63;3.00;;;;;;;13.48;60.76;96943.53;5030914;28;20195;-67
2023/03/21 11:55:45;;;;;;;3.30;3.00;;;;;;;13.31;60.10;96930.66;5036079;28;20835;-66
2023/03/21 11:58:36;;;;;;;4.57;3.00;;;;;;;13.18;59.68;96929.63;5032281;28;20507;-67
2023/03/21 12:01:11;;;;;;;2.63;2.43;;;;;;;13.41;59.80;96931.03;4976853;28;20206;-67
2023/03/21 12:04:03;;;;;;;2.77;2.57;;;;;;;13.32;60.45;96925.09;5037149;28;20208;-67
2023/03/21 12:06:35;;;;;;;3.30;3.00;;;;;;;13.51;58.97;96917.31;5022196;28;20487;-67
2023/03/21 12:09:29;;;;;;;2.60;2.40;;;;;;;13.43;59.06;96902.38;5036926;28;20460;-67
2023/03/21 12:12:19;;;;;;;2.57;2.43;;;;;;;13.44;59.95;96905.84;5042157;28;20206;-66
2023/03/21 12:15:06;;;;;;;1.97;1.87;;;;;;;13.97;59.97;96904.03;5026497;28;20202;-67
2023/03/21 12:17:41;;;;;;;1.83;1.70;;;;;;;13.94;59.72;96901.78;5016672;28;20244;-67
2023/03/21 12:20:25;;;;;;;2.70;2.50;;;;;;;13.92;58.07;96902.00;5027469;28;20205;-67
2023/03/21 12:23:01;;;;;;;2.70;2.50;;;;;;;13.99;58.31;96896.66;5039601;28;20289;-67
2023/03/21 12:25:32;;;;;;;2.37;2.23;;;;;;;14.10;58.83;96893.31;5039370;28;20211;-67
2023/03/21 12:28:07;;;;;;;3.53;2.77;;;;;;;13.78;57.55;96889.78;5042137;28;20273;-67
2023/03/21 12:30:47;;;;;;;3.10;2.23;;;;;;;13.59;57.79;96889.63;5008023;28;21079;-66
2023/03/21 12:33:25;;;;;;;2.00;1.90;;;;;;;13.58;57.83;96888.00;5009942;28;21117;-66
2023/03/21 12:36:09;;;;;;;2.57;2.40;;;;;;;13.75;59.81;96878.53;5044621;28;20695;-66
2023/03/21 12:38:40;;;;;;;2.60;2.40;;;;;;;13.97;59.60;96877.41;5026909;28;20235;-66
2023/03/21 12:41:20;;;;;;;2.53;2.43;;;;;;;14.31;58.29;96875.34;5021536;28;20245;-67
2023/03/21 12:43:50;;;;;;;1.90;1.70;;;;;;;14.27;55.74;96880.28;5027266;28;20911;-68
2023/03/21 12:46:27;;;;;;;2.57;2.30;;;;;;;14.19;56.67;96870.69;4966599;28;21064;-68
2023/03/21 12:48:58;;;;;;;2.40;2.20;;;;;;;14.08;58.71;96865.25;5007797;28;20953;-67
2023/03/21 12:51:31;;;;;;;2.43;2.30;;;;;;;14.34;58.75;96872.25;5022493;28;20424;-68
2023/03/21 12:54:07;;;;;;;2.43;2.30;;;;;;;14.59;58.37;96861.59;5003076;28;20221;-67
2023/03/21 12:56:37;;;;;;;2.20;2.00;;;;;;;15.00;57.85;96861.28;5025956;28;20561;-67
2023/03/21 12:59:14;;;;;;;5.07;2.10;;;;;;;14.72;56.34;96849.22;5027453;28;20220;-68
2023/03/21 13:01:43;;;;;;;3.07;2.80;;;;;;;15.03;57.39;96861.66;4975242;28;20208;-67
2023/03/21 13:04:41;;;;;;;3.87;2.60;;;;;;;14.80;55.87;96853.47;5007677;28;20207;-67
2023/03/21 13:07:12;;;;;;;2.73;2.60;;;;;;;14.98;56.83;96856.19;5014384;28;20216;-67
2023/03/21 13:09:41;;;;;;;2.90;2.70;;;;;;;15.00;57.23;96847.94;5000502;28;20540;-67
2023/03/21 13:12:21;;;;;;;2.40;2.30;;;;;;;15.52;59.44;96844.91;5027262;28;20214;-67
2023/03/21 13:14:58;;;;;;;2.93;2.73;;;;;;;15.55;56.47;96841.78;5028562;28;20211;-67
2023/03/21 13:17:32;;;;;;;3.23;2.93;;;;;;;15.50;56.91;96828.31;4969929;28;20902;-67
2023/03/21 13:20:07;;;;;;;3.63;3.10;;;;;;;15.63;55.88;96838.81;5008660;28;20460;-67
2023/03/21 13:22:35;;;;;;;2.80;2.60;;;;;;;15.69;57.88;96837.09;5017125;28;20199;-67
2023/03/21 13:25:05;;;;;;;2.73;2.53;;;;;;;15.82;57.05;96830.78;5005685;28;20678;-67
2023/03/21 13:27:34;;;;;;;3.97;2.77;;;;;;;15.81;57.94;96834.50;5020001;28;20364;-66
2023/03/21 13:30:05;;;;;;;2.90;2.70;;;;;;;15.94;57.48;96836.19;5028826;28;20655;-67
2023/03/21 13:32:36;;;;;;;2.70;2.60;;;;;;;16.14;56.55;96833.25;4961174;28;20844;-66
2023/03/21 13:35:15;;;;;;;2.57;2.47;;;;;;;16.01;56.09;96828.91;5016475;28;20203;-67
2023/03/21 13:37:44;;;;;;;5.03;3.03;;;;;;;15.83;55.58;96819.06;5023299;28;20254;-67
2023/03/21 13:40:21;;;;;;;3.00;2.70;;;;;;;15.90;56.88;96821.63;4998526;28;20206;-68
2023/03/21 13:42:52;;;;;;;2.50;2.40;;;;;;;15.96;56.34;96815.41;5019151;28;20222;-67
2023/03/21 13:45:28;;;;;;;3.00;2.70;;;;;;;16.32;56.80;96808.31;5019275;28;20888;-66